sensor_id;sensor_type;location;lat;lon;timestamp;P1;durP1;ratioP1;P2;durP2;ratioP2
72286;SDS011;60221;45.696;16.076;2023-06-14T00:01:14;7.60;;;2.50;;
72286;SDS011;60221;45.696;16.076;2023-06-14T00:03:41;6.00;;;2.50;;
72286;SDS011;60221;45.696;16.076;2023-06-14T00:06:08;6.60;;;2.20;;
72286;SDS011;60221;45.696;16.076;2023-06-14T00:08:35;9.00;;;2.80;;
72286;SDS011;60221;45.696;16.076;2023-06-14T00:11:01;7.60;;;2.40;;
72286;SDS011;60221;45.696;16.076;2023-06-14T00:13:28;7.60;;;2.50;;
72286;SDS011;60221;45.696;16.076;2023-06-14T00:15:55;7.80;;;2.30;;
72286;SDS011;60221;45.696;16.076;2023-06-14T00:18:22;7.10;;;2.10;;
72286;SDS011;60221;45.696;16.076;2023-06-14T00:20:50;6.70;;;2.50;;
72286;SDS011;60221;45.696;16.076;2023-06-14T00:23:18;7.70;;;2.10;;
72286;SDS011;60221;45.696;16.076;2023-06-14T00:25:45;5.60;;;2.30;;
72286;SDS011;60221;45.696;16.076;2023-06-14T00:28:11;6.80;;;2.40;;
72286;SDS011;60221;45.696;16.076;2023-06-14T00:30:38;7.30;;;2.20;;
72286;SDS011;60221;45.696;16.076;2023-06-14T00:33:05;6.10;;;2.50;;
72286;SDS011;60221;45.696;16.076;2023-06-14T00:35:32;5.80;;;2.00;;
72286;SDS011;60221;45.696;16.076;2023-06-14T00:37:58;6.90;;;2.80;;
72286;SDS011;60221;45.696;16.076;2023-06-14T00:40:26;12.00;;;2.30;;
72286;SDS011;60221;45.696;16.076;2023-06-14T00:42:52;7.40;;;2.50;;
72286;SDS011;60221;45.696;16.076;2023-06-14T00:45:19;7.80;;;2.70;;
72286;SDS011;60221;45.696;16.076;2023-06-14T00:47:46;7.90;;;2.50;;
72286;SDS011;60221;45.696;16.076;2023-06-14T00:50:15;8.30;;;2.30;;
72286;SDS011;60221;45.696;16.076;2023-06-14T00:52:42;7.30;;;2.90;;
72286;SDS011;60221;45.696;16.076;2023-06-14T00:55:09;6.30;;;2.20;;
72286;SDS011;60221;45.696;16.076;2023-06-14T00:57:35;6.00;;;1.90;;
72286;SDS011;60221;45.696;16.076;2023-06-14T01:00:05;5.60;;;2.00;;
72286;SDS011;60221;45.696;16.076;2023-06-14T01:02:36;6.00;;;1.80;;
72286;SDS011;60221;45.696;16.076;2023-06-14T01:05:04;7.20;;;2.40;;
72286;SDS011;60221;45.696;16.076;2023-06-14T01:12:37;7.00;;;2.20;;
72286;SDS011;60221;45.696;16.076;2023-06-14T01:15:05;7.30;;;2.10;;
72286;SDS011;60221;45.696;16.076;2023-06-14T01:17:34;6.30;;;1.90;;
72286;SDS011;60221;45.696;16.076;2023-06-14T01:20:01;6.20;;;1.60;;
72286;SDS011;60221;45.696;16.076;2023-06-14T01:22:29;6.80;;;2.50;;
72286;SDS011;60221;45.696;16.076;2023-06-14T01:24:56;8.10;;;2.60;;
72286;SDS011;60221;45.696;16.076;2023-06-14T01:27:23;6.40;;;1.60;;
72286;SDS011;60221;45.696;16.076;2023-06-14T01:29:53;6.40;;;2.00;;
72286;SDS011;60221;45.696;16.076;2023-06-14T01:32:23;6.40;;;2.80;;
72286;SDS011;60221;45.696;16.076;2023-06-14T01:34:52;7.30;;;2.30;;
72286;SDS011;60221;45.696;16.076;2023-06-14T01:37:19;8.90;;;2.10;;
72286;SDS011;60221;45.696;16.076;2023-06-14T01:39:47;6.00;;;1.80;;
72286;SDS011;60221;45.696;16.076;2023-06-14T01:42:14;8.00;;;1.90;;
72286;SDS011;60221;45.696;16.076;2023-06-14T01:44:41;8.20;;;2.10;;
72286;SDS011;60221;45.696;16.076;2023-06-14T01:47:09;11.90;;;2.00;;
72286;SDS011;60221;45.696;16.076;2023-06-14T01:49:36;6.10;;;1.90;;
72286;SDS011;60221;45.696;16.076;2023-06-14T01:52:04;8.40;;;2.20;;
72286;SDS011;60221;45.696;16.076;2023-06-14T01:54:32;11.00;;;2.50;;
72286;SDS011;60221;45.696;16.076;2023-06-14T01:57:00;7.30;;;1.80;;
72286;SDS011;60221;45.696;16.076;2023-06-14T01:59:27;7.40;;;1.70;;
72286;SDS011;60221;45.696;16.076;2023-06-14T02:01:54;5.60;;;1.80;;
72286;SDS011;60221;45.696;16.076;2023-06-14T02:04:20;7.20;;;1.60;;
72286;SDS011;60221;45.696;16.076;2023-06-14T02:06:47;5.80;;;2.10;;
72286;SDS011;60221;45.696;16.076;2023-06-14T02:09:14;4.80;;;1.60;;
72286;SDS011;60221;45.696;16.076;2023-06-14T02:11:40;5.00;;;1.60;;
72286;SDS011;60221;45.696;16.076;2023-06-14T02:14:07;7.40;;;1.70;;
72286;SDS011;60221;45.696;16.076;2023-06-14T02:16:37;7.20;;;1.50;;
72286;SDS011;60221;45.696;16.076;2023-06-14T02:19:05;6.60;;;1.80;;
72286;SDS011;60221;45.696;16.076;2023-06-14T02:21:32;6.20;;;1.60;;
72286;SDS011;60221;45.696;16.076;2023-06-14T02:23:58;5.40;;;1.90;;
72286;SDS011;60221;45.696;16.076;2023-06-14T02:26:27;6.80;;;1.70;;
72286;SDS011;60221;45.696;16.076;2023-06-14T02:28:55;6.70;;;1.70;;
72286;SDS011;60221;45.696;16.076;2023-06-14T02:31:22;6.00;;;1.80;;
72286;SDS011;60221;45.696;16.076;2023-06-14T02:33:48;6.50;;;1.60;;
72286;SDS011;60221;45.696;16.076;2023-06-14T02:36:15;9.00;;;2.00;;
72286;SDS011;60221;45.696;16.076;2023-06-14T02:38:42;5.10;;;1.70;;
72286;SDS011;60221;45.696;16.076;2023-06-14T02:41:08;5.20;;;1.50;;
72286;SDS011;60221;45.696;16.076;2023-06-14T02:43:35;5.50;;;1.50;;
72286;SDS011;60221;45.696;16.076;2023-06-14T02:46:04;5.50;;;1.60;;
72286;SDS011;60221;45.696;16.076;2023-06-14T02:48:31;7.80;;;1.50;;
72286;SDS011;60221;45.696;16.076;2023-06-14T02:50:58;6.90;;;1.70;;
72286;SDS011;60221;45.696;16.076;2023-06-14T02:53:24;7.20;;;1.10;;
72286;SDS011;60221;45.696;16.076;2023-06-14T02:55:51;5.50;;;1.30;;
72286;SDS011;60221;45.696;16.076;2023-06-14T02:58:18;7.80;;;1.50;;
72286;SDS011;60221;45.696;16.076;2023-06-14T03:00:45;5.30;;;1.60;;
72286;SDS011;60221;45.696;16.076;2023-06-14T03:03:12;5.90;;;1.60;;
72286;SDS011;60221;45.696;16.076;2023-06-14T03:05:48;6.40;;;1.40;;
72286;SDS011;60221;45.696;16.076;2023-06-14T03:08:18;5.70;;;1.40;;
72286;SDS011;60221;45.696;16.076;2023-06-14T03:10:46;11.40;;;2.20;;
72286;SDS011;60221;45.696;16.076;2023-06-14T03:13:14;7.90;;;1.70;;
72286;SDS011;60221;45.696;16.076;2023-06-14T03:15:42;5.60;;;1.60;;
72286;SDS011;60221;45.696;16.076;2023-06-14T03:18:13;6.70;;;1.30;;
72286;SDS011;60221;45.696;16.076;2023-06-14T03:20:41;5.60;;;1.60;;
72286;SDS011;60221;45.696;16.076;2023-06-14T03:23:09;5.40;;;2.00;;
72286;SDS011;60221;45.696;16.076;2023-06-14T03:25:36;7.20;;;1.80;;
72286;SDS011;60221;45.696;16.076;2023-06-14T03:28:05;8.60;;;2.10;;
72286;SDS011;60221;45.696;16.076;2023-06-14T03:30:32;5.20;;;1.40;;
72286;SDS011;60221;45.696;16.076;2023-06-14T03:32:58;6.40;;;2.20;;
72286;SDS011;60221;45.696;16.076;2023-06-14T03:35:28;5.70;;;1.50;;
72286;SDS011;60221;45.696;16.076;2023-06-14T03:37:55;4.90;;;1.80;;
72286;SDS011;60221;45.696;16.076;2023-06-14T03:40:22;7.10;;;1.90;;
72286;SDS011;60221;45.696;16.076;2023-06-14T03:42:55;5.20;;;1.50;;
72286;SDS011;60221;45.696;16.076;2023-06-14T03:45:22;4.60;;;1.50;;
72286;SDS011;60221;45.696;16.076;2023-06-14T03:47:49;6.40;;;1.80;;
72286;SDS011;60221;45.696;16.076;2023-06-14T03:50:17;5.00;;;1.40;;
72286;SDS011;60221;45.696;16.076;2023-06-14T03:52:44;6.20;;;1.90;;
72286;SDS011;60221;45.696;16.076;2023-06-14T03:55:11;7.80;;;1.80;;
72286;SDS011;60221;45.696;16.076;2023-06-14T03:57:43;4.60;;;1.40;;
72286;SDS011;60221;45.696;16.076;2023-06-14T04:00:12;5.70;;;1.70;;
72286;SDS011;60221;45.696;16.076;2023-06-14T04:02:42;6.30;;;2.00;;
72286;SDS011;60221;45.696;16.076;2023-06-14T04:05:10;7.30;;;1.70;;
72286;SDS011;60221;45.696;16.076;2023-06-14T04:07:42;4.40;;;1.80;;
72286;SDS011;60221;45.696;16.076;2023-06-14T04:10:12;6.20;;;1.80;;
72286;SDS011;60221;45.696;16.076;2023-06-14T04:12:39;5.70;;;2.10;;
72286;SDS011;60221;45.696;16.076;2023-06-14T04:15:09;6.80;;;2.30;;
72286;SDS011;60221;45.696;16.076;2023-06-14T04:17:48;8.20;;;3.10;;
72286;SDS011;60221;45.696;16.076;2023-06-14T04:20:15;6.30;;;2.30;;
72286;SDS011;60221;45.696;16.076;2023-06-14T04:22:43;6.10;;;2.30;;
72286;SDS011;60221;45.696;16.076;2023-06-14T04:25:10;6.00;;;2.70;;
72286;SDS011;60221;45.696;16.076;2023-06-14T04:27:39;5.30;;;2.40;;
72286;SDS011;60221;45.696;16.076;2023-06-14T04:30:07;5.60;;;3.00;;
72286;SDS011;60221;45.696;16.076;2023-06-14T04:32:38;6.20;;;3.20;;
72286;SDS011;60221;45.696;16.076;2023-06-14T04:35:07;6.20;;;3.30;;
72286;SDS011;60221;45.696;16.076;2023-06-14T04:37:36;5.80;;;3.30;;
72286;SDS011;60221;45.696;16.076;2023-06-14T04:40:08;6.10;;;3.20;;
72286;SDS011;60221;45.696;16.076;2023-06-14T04:42:38;7.70;;;3.90;;
72286;SDS011;60221;45.696;16.076;2023-06-14T04:45:08;6.40;;;4.00;;
72286;SDS011;60221;45.696;16.076;2023-06-14T04:47:36;8.10;;;4.10;;
72286;SDS011;60221;45.696;16.076;2023-06-14T04:50:05;7.40;;;4.10;;
72286;SDS011;60221;45.696;16.076;2023-06-14T04:52:32;6.70;;;3.60;;
72286;SDS011;60221;45.696;16.076;2023-06-14T04:54:59;7.40;;;3.80;;
72286;SDS011;60221;45.696;16.076;2023-06-14T04:57:26;7.10;;;3.80;;
72286;SDS011;60221;45.696;16.076;2023-06-14T04:59:56;6.40;;;4.30;;
72286;SDS011;60221;45.696;16.076;2023-06-14T05:02:24;7.20;;;4.30;;
72286;SDS011;60221;45.696;16.076;2023-06-14T05:04:53;7.10;;;4.70;;
72286;SDS011;60221;45.696;16.076;2023-06-14T05:07:19;10.20;;;4.30;;
72286;SDS011;60221;45.696;16.076;2023-06-14T05:09:47;6.90;;;4.10;;
72286;SDS011;60221;45.696;16.076;2023-06-14T05:12:14;7.50;;;4.30;;
72286;SDS011;60221;45.696;16.076;2023-06-14T05:14:45;10.70;;;3.90;;
72286;SDS011;60221;45.696;16.076;2023-06-14T05:17:11;5.70;;;4.00;;
72286;SDS011;60221;45.696;16.076;2023-06-14T05:19:38;6.90;;;4.30;;
72286;SDS011;60221;45.696;16.076;2023-06-14T05:22:05;6.30;;;4.10;;
72286;SDS011;60221;45.696;16.076;2023-06-14T05:24:31;5.30;;;4.00;;
72286;SDS011;60221;45.696;16.076;2023-06-14T05:26:58;9.20;;;5.00;;
72286;SDS011;60221;45.696;16.076;2023-06-14T05:29:25;6.20;;;4.40;;
72286;SDS011;60221;45.696;16.076;2023-06-14T05:31:56;6.90;;;4.40;;
72286;SDS011;60221;45.696;16.076;2023-06-14T05:34:23;8.70;;;4.30;;
72286;SDS011;60221;45.696;16.076;2023-06-14T05:36:49;6.50;;;3.70;;
72286;SDS011;60221;45.696;16.076;2023-06-14T05:39:16;7.30;;;4.50;;
72286;SDS011;60221;45.696;16.076;2023-06-14T05:41:43;8.70;;;3.90;;
72286;SDS011;60221;45.696;16.076;2023-06-14T05:44:10;6.60;;;4.20;;
72286;SDS011;60221;45.696;16.076;2023-06-14T05:46:36;6.70;;;4.80;;
72286;SDS011;60221;45.696;16.076;2023-06-14T05:49:03;8.60;;;4.70;;
72286;SDS011;60221;45.696;16.076;2023-06-14T05:51:30;10.30;;;4.30;;
72286;SDS011;60221;45.696;16.076;2023-06-14T05:53:56;17.00;;;4.80;;
72286;SDS011;60221;45.696;16.076;2023-06-14T05:56:23;11.60;;;5.30;;
72286;SDS011;60221;45.696;16.076;2023-06-14T05:58:50;9.10;;;4.50;;
72286;SDS011;60221;45.696;16.076;2023-06-14T06:01:17;11.30;;;5.30;;
72286;SDS011;60221;45.696;16.076;2023-06-14T06:03:44;10.00;;;4.80;;
72286;SDS011;60221;45.696;16.076;2023-06-14T06:06:14;14.80;;;7.70;;
72286;SDS011;60221;45.696;16.076;2023-06-14T06:08:42;7.40;;;4.10;;
72286;SDS011;60221;45.696;16.076;2023-06-14T06:11:09;6.70;;;3.90;;
72286;SDS011;60221;45.696;16.076;2023-06-14T06:13:37;8.20;;;4.30;;
72286;SDS011;60221;45.696;16.076;2023-06-14T06:16:05;5.40;;;3.00;;
72286;SDS011;60221;45.696;16.076;2023-06-14T06:18:32;6.20;;;3.80;;
72286;SDS011;60221;45.696;16.076;2023-06-14T06:20:58;9.20;;;4.90;;
72286;SDS011;60221;45.696;16.076;2023-06-14T06:23:25;9.30;;;4.70;;
72286;SDS011;60221;45.696;16.076;2023-06-14T06:25:52;6.30;;;3.50;;
72286;SDS011;60221;45.696;16.076;2023-06-14T06:28:19;9.30;;;4.50;;
72286;SDS011;60221;45.696;16.076;2023-06-14T06:30:46;5.40;;;3.40;;
72286;SDS011;60221;45.696;16.076;2023-06-14T06:33:13;6.00;;;3.60;;
72286;SDS011;60221;45.696;16.076;2023-06-14T06:35:40;5.70;;;3.20;;
72286;SDS011;60221;45.696;16.076;2023-06-14T06:38:07;6.40;;;3.40;;
72286;SDS011;60221;45.696;16.076;2023-06-14T06:40:35;5.30;;;3.40;;
72286;SDS011;60221;45.696;16.076;2023-06-14T06:43:02;6.10;;;3.40;;
72286;SDS011;60221;45.696;16.076;2023-06-14T06:45:30;6.00;;;3.40;;
72286;SDS011;60221;45.696;16.076;2023-06-14T06:47:57;5.90;;;3.40;;
72286;SDS011;60221;45.696;16.076;2023-06-14T06:50:24;6.00;;;3.60;;
72286;SDS011;60221;45.696;16.076;2023-06-14T06:52:51;6.90;;;4.10;;
72286;SDS011;60221;45.696;16.076;2023-06-14T06:55:19;6.20;;;3.40;;
72286;SDS011;60221;45.696;16.076;2023-06-14T06:57:46;6.80;;;3.70;;
72286;SDS011;60221;45.696;16.076;2023-06-14T07:00:13;12.50;;;5.60;;
72286;SDS011;60221;45.696;16.076;2023-06-14T07:02:41;5.50;;;3.50;;
72286;SDS011;60221;45.696;16.076;2023-06-14T07:05:07;5.60;;;3.70;;
72286;SDS011;60221;45.696;16.076;2023-06-14T07:07:34;7.10;;;4.00;;
72286;SDS011;60221;45.696;16.076;2023-06-14T07:10:01;7.50;;;4.00;;
72286;SDS011;60221;45.696;16.076;2023-06-14T07:12:31;8.30;;;4.20;;
72286;SDS011;60221;45.696;16.076;2023-06-14T07:15:00;6.40;;;3.60;;
72286;SDS011;60221;45.696;16.076;2023-06-14T07:17:28;8.40;;;4.10;;
72286;SDS011;60221;45.696;16.076;2023-06-14T07:19:54;6.40;;;3.80;;
72286;SDS011;60221;45.696;16.076;2023-06-14T07:22:21;5.50;;;3.90;;
72286;SDS011;60221;45.696;16.076;2023-06-14T07:24:48;8.30;;;3.30;;
72286;SDS011;60221;45.696;16.076;2023-06-14T07:27:14;5.70;;;3.80;;
72286;SDS011;60221;45.696;16.076;2023-06-14T07:29:41;7.10;;;4.00;;
72286;SDS011;60221;45.696;16.076;2023-06-14T07:32:08;7.00;;;3.70;;
72286;SDS011;60221;45.696;16.076;2023-06-14T07:34:34;5.60;;;3.70;;
72286;SDS011;60221;45.696;16.076;2023-06-14T07:37:01;6.90;;;3.40;;
72286;SDS011;60221;45.696;16.076;2023-06-14T07:39:28;6.90;;;3.60;;
72286;SDS011;60221;45.696;16.076;2023-06-14T07:41:56;4.90;;;3.30;;
72286;SDS011;60221;45.696;16.076;2023-06-14T07:44:22;5.30;;;3.40;;
72286;SDS011;60221;45.696;16.076;2023-06-14T07:46:49;6.10;;;3.70;;
72286;SDS011;60221;45.696;16.076;2023-06-14T07:49:16;7.70;;;3.30;;
72286;SDS011;60221;45.696;16.076;2023-06-14T07:51:43;7.20;;;3.50;;
72286;SDS011;60221;45.696;16.076;2023-06-14T07:54:10;7.00;;;3.30;;
72286;SDS011;60221;45.696;16.076;2023-06-14T07:56:37;9.10;;;4.10;;
72286;SDS011;60221;45.696;16.076;2023-06-14T07:59:04;8.00;;;3.40;;
72286;SDS011;60221;45.696;16.076;2023-06-14T08:01:32;8.50;;;3.30;;
72286;SDS011;60221;45.696;16.076;2023-06-14T08:03:59;6.50;;;3.20;;
72286;SDS011;60221;45.696;16.076;2023-06-14T08:06:26;10.70;;;3.60;;
72286;SDS011;60221;45.696;16.076;2023-06-14T08:08:54;5.70;;;3.40;;
72286;SDS011;60221;45.696;16.076;2023-06-14T08:11:23;5.30;;;3.10;;
72286;SDS011;60221;45.696;16.076;2023-06-14T08:13:50;6.00;;;3.50;;
72286;SDS011;60221;45.696;16.076;2023-06-14T08:16:17;6.70;;;3.30;;
72286;SDS011;60221;45.696;16.076;2023-06-14T08:18:44;6.90;;;2.90;;
72286;SDS011;60221;45.696;16.076;2023-06-14T08:21:11;6.30;;;3.50;;
72286;SDS011;60221;45.696;16.076;2023-06-14T08:23:37;7.40;;;3.20;;
72286;SDS011;60221;45.696;16.076;2023-06-14T08:26:04;11.40;;;4.50;;
72286;SDS011;60221;45.696;16.076;2023-06-14T08:28:30;6.00;;;3.30;;
72286;SDS011;60221;45.696;16.076;2023-06-14T08:30:57;6.30;;;3.20;;
72286;SDS011;60221;45.696;16.076;2023-06-14T08:33:24;5.80;;;2.90;;
72286;SDS011;60221;45.696;16.076;2023-06-14T08:35:51;5.80;;;2.40;;
72286;SDS011;60221;45.696;16.076;2023-06-14T08:38:18;5.00;;;2.70;;
72286;SDS011;60221;45.696;16.076;2023-06-14T08:40:45;8.20;;;3.20;;
72286;SDS011;60221;45.696;16.076;2023-06-14T08:43:14;4.50;;;2.60;;
72286;SDS011;60221;45.696;16.076;2023-06-14T08:45:41;7.50;;;2.80;;
72286;SDS011;60221;45.696;16.076;2023-06-14T08:48:08;5.40;;;2.60;;
72286;SDS011;60221;45.696;16.076;2023-06-14T08:50:36;5.90;;;3.40;;
72286;SDS011;60221;45.696;16.076;2023-06-14T08:53:05;6.00;;;2.70;;
72286;SDS011;60221;45.696;16.076;2023-06-14T08:55:33;5.80;;;3.30;;
72286;SDS011;60221;45.696;16.076;2023-06-14T08:58:03;5.90;;;2.70;;
72286;SDS011;60221;45.696;16.076;2023-06-14T09:00:31;4.70;;;2.70;;
72286;SDS011;60221;45.696;16.076;2023-06-14T09:03:00;5.40;;;2.20;;
72286;SDS011;60221;45.696;16.076;2023-06-14T09:05:27;4.00;;;2.80;;
72286;SDS011;60221;45.696;16.076;2023-06-14T09:07:54;6.00;;;3.00;;
72286;SDS011;60221;45.696;16.076;2023-06-14T09:10:23;6.40;;;3.00;;
72286;SDS011;60221;45.696;16.076;2023-06-14T09:12:51;4.90;;;2.50;;
72286;SDS011;60221;45.696;16.076;2023-06-14T09:15:17;5.80;;;3.40;;
72286;SDS011;60221;45.696;16.076;2023-06-14T09:17:44;6.40;;;3.00;;
72286;SDS011;60221;45.696;16.076;2023-06-14T09:20:11;8.70;;;2.90;;
72286;SDS011;60221;45.696;16.076;2023-06-14T09:22:45;5.70;;;2.90;;
72286;SDS011;60221;45.696;16.076;2023-06-14T09:25:11;5.30;;;2.40;;
72286;SDS011;60221;45.696;16.076;2023-06-14T09:27:58;6.40;;;2.20;;
72286;SDS011;60221;45.696;16.076;2023-06-14T09:30:25;5.60;;;2.60;;
72286;SDS011;60221;45.696;16.076;2023-06-14T09:32:52;6.40;;;2.90;;
72286;SDS011;60221;45.696;16.076;2023-06-14T09:35:20;5.70;;;3.00;;
72286;SDS011;60221;45.696;16.076;2023-06-14T09:37:46;7.10;;;3.00;;
72286;SDS011;60221;45.696;16.076;2023-06-14T09:40:13;5.50;;;3.00;;
72286;SDS011;60221;45.696;16.076;2023-06-14T09:42:46;6.00;;;2.70;;
72286;SDS011;60221;45.696;16.076;2023-06-14T09:45:13;5.80;;;2.90;;
72286;SDS011;60221;45.696;16.076;2023-06-14T09:47:41;5.70;;;2.70;;
72286;SDS011;60221;45.696;16.076;2023-06-14T09:50:28;5.30;;;3.00;;
72286;SDS011;60221;45.696;16.076;2023-06-14T09:52:56;3.90;;;2.10;;
72286;SDS011;60221;45.696;16.076;2023-06-14T09:55:25;4.50;;;2.70;;
72286;SDS011;60221;45.696;16.076;2023-06-14T09:57:53;4.60;;;2.70;;
72286;SDS011;60221;45.696;16.076;2023-06-14T10:00:22;6.60;;;3.10;;
72286;SDS011;60221;45.696;16.076;2023-06-14T10:02:51;4.60;;;3.20;;
72286;SDS011;60221;45.696;16.076;2023-06-14T10:05:20;6.80;;;2.70;;
72286;SDS011;60221;45.696;16.076;2023-06-14T10:07:50;4.90;;;2.60;;
72286;SDS011;60221;45.696;16.076;2023-06-14T10:10:19;4.70;;;2.20;;
72286;SDS011;60221;45.696;16.076;2023-06-14T10:12:46;6.80;;;2.90;;
72286;SDS011;60221;45.696;16.076;2023-06-14T10:15:30;5.80;;;2.80;;
72286;SDS011;60221;45.696;16.076;2023-06-14T10:18:01;5.20;;;2.90;;
72286;SDS011;60221;45.696;16.076;2023-06-14T10:23:04;5.90;;;2.90;;
72286;SDS011;60221;45.696;16.076;2023-06-14T10:25:32;6.30;;;2.50;;
72286;SDS011;60221;45.696;16.076;2023-06-14T10:28:05;4.70;;;2.70;;
72286;SDS011;60221;45.696;16.076;2023-06-14T10:30:40;7.00;;;2.70;;
72286;SDS011;60221;45.696;16.076;2023-06-14T10:33:27;4.90;;;2.30;;
72286;SDS011;60221;45.696;16.076;2023-06-14T10:36:37;5.10;;;2.50;;
72286;SDS011;60221;45.696;16.076;2023-06-14T10:38:44;5.40;;;2.90;;
72286;SDS011;60221;45.696;16.076;2023-06-14T10:41:11;5.40;;;2.40;;
72286;SDS011;60221;45.696;16.076;2023-06-14T10:43:37;5.30;;;2.60;;
72286;SDS011;60221;45.696;16.076;2023-06-14T10:46:14;5.50;;;2.60;;
72286;SDS011;60221;45.696;16.076;2023-06-14T10:48:42;7.00;;;2.60;;
72286;SDS011;60221;45.696;16.076;2023-06-14T10:51:18;5.00;;;2.90;;
72286;SDS011;60221;45.696;16.076;2023-06-14T10:53:48;4.10;;;2.50;;
72286;SDS011;60221;45.696;16.076;2023-06-14T10:56:26;5.80;;;2.60;;
72286;SDS011;60221;45.696;16.076;2023-06-14T10:58:54;5.20;;;2.40;;
72286;SDS011;60221;45.696;16.076;2023-06-14T11:01:32;5.30;;;3.20;;
72286;SDS011;60221;45.696;16.076;2023-06-14T11:04:06;4.50;;;2.40;;
72286;SDS011;60221;45.696;16.076;2023-06-14T11:06:44;6.70;;;2.90;;
72286;SDS011;60221;45.696;16.076;2023-06-14T11:12:00;4.60;;;2.60;;
72286;SDS011;60221;45.696;16.076;2023-06-14T11:14:31;5.80;;;2.80;;
72286;SDS011;60221;45.696;16.076;2023-06-14T11:16:57;4.80;;;3.10;;
72286;SDS011;60221;45.696;16.076;2023-06-14T11:19:24;6.80;;;3.00;;
72286;SDS011;60221;45.696;16.076;2023-06-14T11:21:51;4.90;;;2.90;;
72286;SDS011;60221;45.696;16.076;2023-06-14T11:24:19;4.70;;;2.60;;
72286;SDS011;60221;45.696;16.076;2023-06-14T11:26:46;7.10;;;2.70;;
72286;SDS011;60221;45.696;16.076;2023-06-14T11:29:14;5.00;;;2.90;;
72286;SDS011;60221;45.696;16.076;2023-06-14T11:31:44;6.60;;;2.70;;
72286;SDS011;60221;45.696;16.076;2023-06-14T11:34:14;4.90;;;2.40;;
72286;SDS011;60221;45.696;16.076;2023-06-14T11:36:41;6.50;;;2.90;;
72286;SDS011;60221;45.696;16.076;2023-06-14T11:39:09;4.90;;;2.70;;
72286;SDS011;60221;45.696;16.076;2023-06-14T11:41:40;6.30;;;3.30;;
72286;SDS011;60221;45.696;16.076;2023-06-14T11:44:07;9.20;;;3.10;;
72286;SDS011;60221;45.696;16.076;2023-06-14T11:46:34;5.90;;;3.00;;
72286;SDS011;60221;45.696;16.076;2023-06-14T11:49:01;7.90;;;2.40;;
72286;SDS011;60221;45.696;16.076;2023-06-14T11:51:32;9.00;;;3.60;;
72286;SDS011;60221;45.696;16.076;2023-06-14T11:54:00;5.60;;;3.30;;
72286;SDS011;60221;45.696;16.076;2023-06-14T11:56:30;7.40;;;3.00;;
72286;SDS011;60221;45.696;16.076;2023-06-14T11:58:58;4.70;;;2.70;;
72286;SDS011;60221;45.696;16.076;2023-06-14T12:01:25;7.80;;;3.70;;
72286;SDS011;60221;45.696;16.076;2023-06-14T12:03:53;4.90;;;2.90;;
72286;SDS011;60221;45.696;16.076;2023-06-14T12:06:26;5.50;;;2.80;;
72286;SDS011;60221;45.696;16.076;2023-06-14T12:08:57;5.90;;;2.90;;
72286;SDS011;60221;45.696;16.076;2023-06-14T12:11:24;4.50;;;2.90;;
72286;SDS011;60221;45.696;16.076;2023-06-14T12:13:51;4.90;;;2.50;;
72286;SDS011;60221;45.696;16.076;2023-06-14T12:16:17;6.50;;;3.50;;
72286;SDS011;60221;45.696;16.076;2023-06-14T12:18:44;6.60;;;2.80;;
72286;SDS011;60221;45.696;16.076;2023-06-14T12:21:11;4.90;;;2.70;;
72286;SDS011;60221;45.696;16.076;2023-06-14T12:23:47;4.90;;;2.80;;
72286;SDS011;60221;45.696;16.076;2023-06-14T12:26:15;6.80;;;3.00;;
72286;SDS011;60221;45.696;16.076;2023-06-14T12:28:43;4.50;;;2.60;;
72286;SDS011;60221;45.696;16.076;2023-06-14T12:31:11;5.30;;;2.90;;
72286;SDS011;60221;45.696;16.076;2023-06-14T12:33:39;4.50;;;2.30;;
72286;SDS011;60221;45.696;16.076;2023-06-14T12:36:07;6.50;;;3.10;;
72286;SDS011;60221;45.696;16.076;2023-06-14T12:38:34;5.90;;;2.90;;
72286;SDS011;60221;45.696;16.076;2023-06-14T12:41:00;5.60;;;3.00;;
72286;SDS011;60221;45.696;16.076;2023-06-14T12:43:28;9.80;;;3.10;;
72286;SDS011;60221;45.696;16.076;2023-06-14T12:45:55;5.10;;;2.60;;
72286;SDS011;60221;45.696;16.076;2023-06-14T12:48:21;6.40;;;3.20;;
72286;SDS011;60221;45.696;16.076;2023-06-14T12:50:48;4.20;;;2.70;;
72286;SDS011;60221;45.696;16.076;2023-06-14T12:53:15;5.20;;;2.70;;
72286;SDS011;60221;45.696;16.076;2023-06-14T12:55:41;6.30;;;3.10;;
72286;SDS011;60221;45.696;16.076;2023-06-14T12:58:08;5.20;;;2.90;;
72286;SDS011;60221;45.696;16.076;2023-06-14T13:00:35;5.00;;;2.70;;
72286;SDS011;60221;45.696;16.076;2023-06-14T13:03:02;4.60;;;2.40;;
72286;SDS011;60221;45.696;16.076;2023-06-14T13:05:28;6.90;;;2.90;;
72286;SDS011;60221;45.696;16.076;2023-06-14T13:07:57;7.90;;;2.80;;
72286;SDS011;60221;45.696;16.076;2023-06-14T13:10:24;6.80;;;2.50;;
72286;SDS011;60221;45.696;16.076;2023-06-14T13:12:50;6.50;;;2.80;;
72286;SDS011;60221;45.696;16.076;2023-06-14T13:15:17;4.20;;;2.20;;
72286;SDS011;60221;45.696;16.076;2023-06-14T13:17:44;3.80;;;2.10;;
72286;SDS011;60221;45.696;16.076;2023-06-14T13:20:15;5.20;;;2.60;;
72286;SDS011;60221;45.696;16.076;2023-06-14T13:22:46;5.40;;;2.50;;
72286;SDS011;60221;45.696;16.076;2023-06-14T13:25:12;5.60;;;2.60;;
72286;SDS011;60221;45.696;16.076;2023-06-14T13:27:39;7.30;;;2.50;;
72286;SDS011;60221;45.696;16.076;2023-06-14T13:30:06;4.90;;;2.80;;
72286;SDS011;60221;45.696;16.076;2023-06-14T13:32:33;4.90;;;2.70;;
72286;SDS011;60221;45.696;16.076;2023-06-14T13:34:59;5.80;;;2.80;;
72286;SDS011;60221;45.696;16.076;2023-06-14T13:37:26;5.40;;;2.40;;
72286;SDS011;60221;45.696;16.076;2023-06-14T13:39:53;6.30;;;2.60;;
72286;SDS011;60221;45.696;16.076;2023-06-14T13:42:19;4.80;;;2.40;;
72286;SDS011;60221;45.696;16.076;2023-06-14T13:44:46;4.90;;;2.30;;
72286;SDS011;60221;45.696;16.076;2023-06-14T13:47:13;5.20;;;2.70;;
72286;SDS011;60221;45.696;16.076;2023-06-14T13:49:40;6.50;;;2.50;;
72286;SDS011;60221;45.696;16.076;2023-06-14T13:52:07;5.50;;;2.60;;
72286;SDS011;60221;45.696;16.076;2023-06-14T13:54:34;7.30;;;2.60;;
72286;SDS011;60221;45.696;16.076;2023-06-14T13:57:00;5.70;;;3.30;;
72286;SDS011;60221;45.696;16.076;2023-06-14T13:59:27;6.30;;;2.70;;
72286;SDS011;60221;45.696;16.076;2023-06-14T14:01:53;5.50;;;2.40;;
72286;SDS011;60221;45.696;16.076;2023-06-14T14:04:21;5.80;;;2.90;;
72286;SDS011;60221;45.696;16.076;2023-06-14T14:06:48;5.00;;;2.80;;
72286;SDS011;60221;45.696;16.076;2023-06-14T14:09:15;4.70;;;2.80;;
72286;SDS011;60221;45.696;16.076;2023-06-14T14:11:41;4.80;;;3.00;;
72286;SDS011;60221;45.696;16.076;2023-06-14T14:14:08;7.90;;;2.70;;
72286;SDS011;60221;45.696;16.076;2023-06-14T14:16:36;4.60;;;2.40;;
72286;SDS011;60221;45.696;16.076;2023-06-14T14:19:04;5.00;;;2.80;;
72286;SDS011;60221;45.696;16.076;2023-06-14T14:21:32;4.60;;;2.50;;
72286;SDS011;60221;45.696;16.076;2023-06-14T14:23:59;4.80;;;2.90;;
72286;SDS011;60221;45.696;16.076;2023-06-14T14:26:26;5.10;;;2.40;;
72286;SDS011;60221;45.696;16.076;2023-06-14T14:28:53;7.90;;;2.80;;
72286;SDS011;60221;45.696;16.076;2023-06-14T14:31:20;5.80;;;3.00;;
72286;SDS011;60221;45.696;16.076;2023-06-14T14:33:46;5.20;;;2.60;;
72286;SDS011;60221;45.696;16.076;2023-06-14T14:36:13;4.80;;;2.80;;
72286;SDS011;60221;45.696;16.076;2023-06-14T14:38:40;6.10;;;2.90;;
72286;SDS011;60221;45.696;16.076;2023-06-14T14:41:07;4.80;;;2.20;;
72286;SDS011;60221;45.696;16.076;2023-06-14T14:43:33;4.70;;;2.60;;
72286;SDS011;60221;45.696;16.076;2023-06-14T14:46:00;6.50;;;3.00;;
72286;SDS011;60221;45.696;16.076;2023-06-14T14:48:27;8.80;;;2.70;;